createdAt,value
2023-05-09T00:01:41.982Z,59.79
2023-05-09T00:04:13.587Z,59.78
2023-05-09T00:06:45.316Z,59.99
2023-05-09T00:09:17.001Z,60.05
2023-05-09T00:11:49.485Z,60.23
2023-05-09T00:14:21.430Z,60.07
2023-05-09T00:16:54.057Z,60.04
2023-05-09T00:19:25.675Z,60.30
2023-05-09T00:21:57.230Z,60.49
2023-05-09T00:24:28.762Z,60.31
2023-05-09T00:27:00.317Z,60.12
2023-05-09T00:29:31.896Z,60.61
2023-05-09T00:32:03.444Z,61.09
2023-05-09T00:34:34.947Z,61.10
2023-05-09T00:37:07.393Z,60.97
2023-05-09T00:39:39.189Z,60.44
2023-05-09T00:42:12.056Z,60.36
2023-05-09T00:44:44.585Z,60.40
2023-05-09T00:47:16.183Z,60.35
2023-05-09T00:49:47.956Z,60.31
2023-05-09T00:52:23.484Z,60.95
2023-05-09T00:54:56.444Z,61.41
2023-05-09T00:57:28.157Z,61.50
2023-05-09T00:59:59.773Z,61.61
2023-05-09T01:02:31.992Z,61.80
2023-05-09T01:05:03.726Z,61.61
2023-05-09T01:07:39.702Z,60.90
2023-05-09T01:10:17.958Z,61.04
2023-05-09T01:12:56.462Z,61.49
2023-05-09T01:15:35.867Z,61.41
2023-05-09T01:18:13.338Z,61.50
2023-05-09T01:20:49.112Z,61.12
2023-05-09T01:23:48.551Z,61.10
2023-05-09T01:26:27.161Z,61.25
2023-05-09T01:29:25.262Z,61.43
2023-05-09T01:31:59.877Z,61.41
2023-05-09T01:34:34.035Z,61.71
2023-05-09T01:37:08.697Z,61.64
2023-05-09T01:39:43.901Z,61.39
2023-05-09T01:42:18.941Z,61.57
2023-05-09T01:44:51.381Z,61.65
2023-05-09T01:47:24.899Z,61.52
2023-05-09T01:49:57.901Z,61.54
2023-05-09T01:52:31.142Z,61.80
2023-05-09T01:55:06.526Z,61.85
2023-05-09T01:57:39.297Z,62.23
2023-05-09T02:00:14.619Z,62.31
2023-05-09T02:02:47.598Z,61.87
2023-05-09T02:05:21.065Z,61.65
2023-05-09T02:07:53.755Z,61.73
2023-05-09T02:10:28.114Z,61.37
2023-05-09T02:12:59.870Z,61.54
2023-05-09T02:15:33.495Z,61.91
2023-05-09T02:18:06.105Z,62.25
2023-05-09T02:20:37.576Z,62.45
2023-05-09T02:23:09.693Z,62.30
2023-05-09T02:25:42.230Z,62.48
2023-05-09T02:28:14.969Z,62.85
2023-05-09T02:30:49.025Z,63.09
2023-05-09T02:33:21.549Z,62.80
2023-05-09T02:35:54.734Z,62.79
2023-05-09T02:38:27.502Z,63.07
2023-05-09T02:40:59.425Z,62.47
2023-05-09T02:43:31.117Z,62.68
2023-05-09T02:46:02.541Z,63.02
2023-05-09T02:48:34.284Z,63.18
2023-05-09T02:51:06.133Z,63.00
2023-05-09T02:53:37.780Z,62.84
2023-05-09T02:56:11.182Z,63.56
2023-05-09T02:58:42.577Z,63.36
2023-05-09T03:01:14.027Z,63.15
2023-05-09T03:03:46.351Z,63.14
2023-05-09T03:06:18.794Z,62.63
2023-05-09T03:08:50.341Z,62.96
2023-05-09T03:11:22.293Z,63.01
2023-05-09T03:13:53.783Z,63.00
2023-05-09T03:16:25.355Z,62.83
2023-05-09T03:18:56.884Z,62.40
2023-05-09T03:21:29.831Z,62.37
2023-05-09T03:24:01.438Z,62.71
2023-05-09T03:26:33.074Z,62.76
2023-05-09T03:29:04.647Z,62.49
2023-05-09T03:31:36.385Z,62.65
2023-05-09T03:34:13.276Z,63.52
2023-05-09T03:36:45.210Z,64.45
2023-05-09T03:39:16.835Z,64.26
2023-05-09T03:41:49.125Z,63.60
2023-05-09T03:44:21.231Z,63.01
2023-05-09T03:46:53.460Z,62.42
2023-05-09T03:49:28.862Z,62.19
2023-05-09T03:52:05.241Z,61.04
2023-05-09T03:54:40.433Z,60.37
2023-05-09T03:57:11.952Z,60.08
2023-05-09T03:59:43.485Z,59.57
2023-05-09T04:02:15.425Z,59.46
2023-05-09T04:04:47.632Z,59.52
2023-05-09T04:07:19.451Z,59.27
2023-05-09T04:09:51.212Z,59.01
2023-05-09T04:12:22.644Z,58.55
2023-05-09T04:14:54.276Z,58.08
2023-05-09T04:17:26.230Z,57.32
2023-05-09T04:19:57.909Z,56.41
2023-05-09T04:22:29.764Z,55.82
2023-05-09T04:25:05.726Z,55.25
2023-05-09T04:27:37.630Z,54.39
2023-05-09T04:30:11.619Z,53.56
2023-05-09T04:32:46.462Z,52.55
2023-05-09T04:35:20.698Z,52.25
2023-05-09T04:37:50.825Z,51.73
2023-05-09T04:40:22.974Z,52.06
2023-05-09T04:42:57.610Z,51.29
2023-05-09T04:45:29.462Z,50.61
2023-05-09T04:48:01.527Z,50.45
2023-05-09T04:50:33.566Z,50.52
2023-05-09T04:53:05.305Z,49.88
2023-05-09T04:55:36.991Z,49.50
2023-05-09T04:58:09.556Z,48.93
2023-05-09T05:00:42.771Z,48.74
2023-05-09T05:03:14.308Z,48.57
2023-05-09T05:05:45.975Z,48.03
2023-05-09T05:08:17.537Z,47.86
2023-05-09T05:10:49.997Z,47.76
2023-05-09T05:13:22.201Z,47.31
2023-05-09T05:15:54.187Z,47.16
2023-05-09T05:18:25.957Z,46.95
2023-05-09T05:20:57.862Z,46.91
2023-05-09T05:23:29.556Z,46.74
2023-05-09T05:26:01.369Z,46.15
2023-05-09T05:28:33.615Z,45.62
2023-05-09T05:31:05.325Z,45.25
2023-05-09T05:33:37.160Z,44.73
2023-05-09T05:36:11.086Z,44.27
2023-05-09T05:38:43.056Z,44.08
2023-05-09T05:41:16.032Z,43.78
2023-05-09T05:43:47.731Z,43.73
2023-05-09T05:46:19.497Z,43.74
2023-05-09T05:48:51.499Z,43.61
2023-05-09T05:51:23.622Z,43.31
2023-05-09T05:53:55.400Z,43.38
2023-05-09T05:56:27.019Z,43.06
2023-05-09T05:58:58.504Z,42.55
2023-05-09T06:01:30.649Z,42.17
2023-05-09T06:04:02.369Z,41.56
2023-05-09T06:06:34.625Z,41.26
2023-05-09T06:09:06.504Z,41.24
2023-05-09T06:11:40.174Z,41.16
2023-05-09T06:14:12.586Z,41.08
2023-05-09T06:16:44.504Z,40.17
2023-05-09T06:19:16.218Z,39.94
2023-05-09T06:21:48.368Z,39.93
2023-05-09T06:24:31.661Z,39.48
2023-05-09T06:27:07.710Z,39.33
2023-05-09T06:29:41.026Z,39.22
2023-05-09T06:32:12.586Z,38.91
2023-05-09T06:34:44.338Z,38.85
2023-05-09T06:37:16.052Z,38.28
2023-05-09T06:39:47.957Z,37.10
2023-05-09T06:42:19.501Z,37.55
2023-05-09T06:44:51.104Z,37.77
2023-05-09T06:47:22.800Z,37.29
2023-05-09T06:49:55.142Z,37.25
2023-05-09T06:52:26.668Z,36.60
2023-05-09T06:54:58.219Z,36.46
2023-05-09T06:57:29.987Z,36.05
2023-05-09T07:00:01.673Z,36.11
2023-05-09T07:02:36.413Z,36.09
2023-05-09T07:05:09.082Z,36.05
2023-05-09T07:07:41.105Z,35.51
2023-05-09T07:10:14.961Z,35.47
2023-05-09T07:12:46.654Z,34.48
2023-05-09T07:15:28.651Z,34.18
2023-05-09T07:18:09.206Z,32.47
2023-05-09T07:20:43.476Z,32.02
2023-05-09T07:23:15.419Z,32.03
2023-05-09T07:25:50.009Z,32.49
2023-05-09T07:28:22.485Z,31.83
2023-05-09T07:30:54.567Z,32.15
2023-05-09T07:33:27.360Z,31.89
2023-05-09T07:36:01.911Z,31.67
2023-05-09T07:38:32.050Z,31.64
2023-05-09T07:41:04.085Z,31.89
2023-05-09T07:43:37.093Z,32.15
2023-05-09T07:46:09.216Z,31.79
2023-05-09T07:48:41.087Z,31.73
2023-05-09T07:51:13.400Z,32.14
2023-05-09T07:53:46.151Z,32.29
2023-05-09T07:56:18.147Z,32.35
2023-05-09T07:58:50.195Z,31.98
2023-05-09T08:01:22.248Z,31.29
2023-05-09T08:03:54.772Z,31.50
2023-05-09T08:06:27.023Z,31.65
2023-05-09T08:08:59.107Z,31.17
2023-05-09T08:11:31.156Z,31.21
2023-05-09T08:14:04.158Z,31.33
2023-05-09T08:16:36.367Z,30.37
2023-05-09T08:19:08.576Z,30.24
2023-05-09T08:21:40.715Z,30.35
2023-05-09T08:24:12.932Z,31.08
2023-05-09T08:27:13.947Z,31.12
2023-05-09T08:29:46.791Z,30.14
2023-05-09T08:32:20.315Z,30.04
2023-05-09T08:34:52.793Z,29.82
2023-05-09T08:37:27.886Z,29.61
2023-05-09T08:39:59.902Z,29.15
2023-05-09T08:42:34.319Z,29.60
2023-05-09T08:45:11.126Z,29.44
2023-05-09T08:47:43.357Z,29.46
2023-05-09T08:50:17.791Z,29.17
2023-05-09T08:52:50.395Z,29.04
2023-05-09T08:55:22.915Z,28.68
2023-05-09T08:57:55.700Z,29.66
2023-05-09T09:00:29.291Z,29.58
2023-05-09T09:03:02.741Z,29.28
2023-05-09T09:05:41.750Z,29.46
2023-05-09T09:08:14.495Z,29.37
2023-05-09T09:10:47.783Z,28.72
2023-05-09T09:13:20.232Z,28.88
2023-05-09T09:15:55.448Z,29.20
2023-05-09T09:18:31.421Z,29.60
2023-05-09T09:21:07.979Z,29.56
2023-05-09T09:23:41.835Z,29.74
2023-05-09T09:26:14.596Z,29.82
2023-05-09T09:29:00.035Z,29.81
2023-05-09T09:31:38.554Z,29.94
2023-05-09T09:34:10.076Z,29.55
2023-05-09T09:36:41.891Z,29.73
2023-05-09T09:39:19.446Z,29.37
2023-05-09T09:41:56.826Z,29.71
2023-05-09T09:44:29.707Z,29.89
2023-05-09T09:47:01.919Z,29.33
2023-05-09T09:49:34.195Z,28.75
2023-05-09T09:52:05.896Z,28.86
2023-05-09T09:54:37.654Z,28.78
2023-05-09T09:57:09.433Z,29.19
2023-05-09T09:59:41.235Z,28.41
2023-05-09T10:02:12.941Z,27.43
2023-05-09T10:04:45.630Z,27.65
2023-05-09T10:07:20.908Z,27.64
2023-05-09T10:09:52.816Z,27.85
2023-05-09T10:12:24.648Z,27.98
2023-05-09T10:14:56.842Z,27.83
2023-05-09T10:17:29.208Z,27.71
2023-05-09T10:20:01.599Z,28.58
2023-05-09T10:22:34.123Z,27.71
2023-05-09T10:25:14.187Z,27.93
2023-05-09T10:27:49.076Z,27.92
2023-05-09T10:30:34.072Z,27.75
2023-05-09T10:33:11.599Z,28.08
2023-05-09T10:35:49.127Z,28.34
2023-05-09T10:38:21.481Z,28.37
2023-05-09T10:40:55.113Z,28.38
2023-05-09T10:43:27.778Z,28.59
2023-05-09T10:46:04.433Z,28.96
2023-05-09T10:48:42.649Z,29.36
2023-05-09T10:51:17.103Z,29.16
2023-05-09T10:53:53.116Z,29.33
2023-05-09T10:56:33.834Z,29.15
2023-05-09T10:59:05.821Z,28.99
2023-05-09T11:01:40.614Z,29.10
2023-05-09T11:04:18.078Z,28.88
2023-05-09T11:06:52.126Z,28.71
2023-05-09T11:09:33.517Z,28.92
2023-05-09T11:12:15.567Z,28.86
2023-05-09T11:14:49.174Z,28.44
2023-05-09T11:17:32.487Z,28.34
2023-05-09T11:20:12.149Z,28.51
2023-05-09T11:22:47.131Z,29.03
2023-05-09T11:25:19.883Z,28.99
2023-05-09T11:28:02.521Z,29.23
2023-05-09T11:30:46.274Z,29.00
2023-05-09T11:33:28.872Z,29.18
2023-05-09T11:36:25.835Z,28.52
2023-05-09T11:39:08.714Z,28.82
2023-05-09T11:41:50.929Z,28.24
2023-05-09T11:44:23.938Z,29.22
2023-05-09T11:46:55.590Z,28.89
2023-05-09T11:49:30.267Z,28.58
2023-05-09T11:52:06.758Z,28.18
2023-05-09T11:54:39.880Z,28.47
2023-05-09T11:57:12.069Z,28.25
2023-05-09T11:59:44.524Z,28.45
2023-05-09T12:02:17.283Z,27.92
2023-05-09T12:04:50.544Z,28.38
2023-05-09T12:07:22.202Z,28.46
2023-05-09T12:10:21.938Z,28.64
2023-05-09T12:13:16.362Z,28.44
2023-05-09T12:15:48.263Z,28.01
2023-05-09T12:18:31.974Z,28.45
2023-05-09T12:21:04.199Z,28.04
2023-05-09T12:23:39.545Z,28.05
2023-05-09T12:26:13.074Z,27.71
2023-05-09T12:28:47.149Z,28.34
2023-05-09T12:31:20.504Z,28.60
2023-05-09T12:33:53.929Z,28.33
2023-05-09T12:36:26.680Z,28.81
2023-05-09T12:38:59.111Z,28.71
2023-05-09T12:41:39.212Z,28.81
2023-05-09T12:44:19.939Z,28.65
2023-05-09T12:47:04.722Z,28.80
2023-05-09T12:49:38.989Z,28.94
2023-05-09T12:52:22.050Z,28.88
2023-05-09T12:54:55.578Z,28.18
2023-05-09T12:57:31.580Z,27.25
2023-05-09T13:00:06.969Z,27.74
2023-05-09T13:02:43.047Z,27.86
2023-05-09T13:05:19.482Z,28.09
2023-05-09T13:07:52.989Z,28.53
2023-05-09T13:10:30.204Z,28.53
2023-05-09T13:13:02.852Z,27.09
2023-05-09T13:15:34.641Z,27.20
2023-05-09T13:18:06.939Z,27.39
2023-05-09T13:20:39.355Z,27.23
2023-05-09T13:23:11.186Z,26.77
2023-05-09T13:25:42.758Z,27.13
2023-05-09T13:31:30.999Z,26.84
2023-05-09T13:38:04.924Z,26.81
2023-05-09T13:40:45.403Z,26.80
2023-05-09T13:43:17.265Z,27.10
2023-05-09T13:45:49.910Z,27.29
2023-05-09T13:48:53.532Z,27.35
2023-05-09T13:51:35.417Z,27.52
2023-05-09T13:54:16.181Z,28.07
2023-05-09T13:56:53.713Z,28.15
2023-05-09T13:59:30.423Z,28.32
2023-05-09T14:02:17.548Z,28.60
2023-05-09T14:05:12.078Z,27.72
2023-05-09T14:07:43.934Z,27.86
2023-05-09T14:10:19.056Z,28.19
2023-05-09T14:12:53.468Z,28.49
2023-05-09T14:15:36.225Z,28.91
2023-05-09T14:18:08.620Z,28.71
2023-05-09T14:20:41.177Z,28.55
2023-05-09T14:23:14.486Z,28.62
2023-05-09T14:26:25.976Z,28.69
2023-05-09T14:29:20.332Z,28.81
2023-05-09T14:31:51.879Z,27.66
2023-05-09T14:35:28.453Z,28.03
2023-05-09T14:42:47.824Z,27.80
2023-05-09T14:45:31.914Z,27.76
2023-05-09T14:48:17.725Z,27.94
2023-05-09T14:51:06.675Z,28.24
2023-05-09T14:53:49.954Z,28.27
2023-05-09T14:56:27.104Z,28.20
2023-05-09T14:59:14.678Z,28.31
2023-05-09T15:01:47.425Z,28.26
2023-05-09T15:04:22.193Z,28.11
2023-05-09T15:07:46.253Z,28.01
2023-05-09T15:14:06.855Z,28.08
2023-05-09T15:16:41.793Z,28.13
2023-05-09T15:19:26.857Z,28.19
2023-05-09T15:22:04.620Z,28.25
2023-05-09T15:24:47.138Z,27.80
2023-05-09T15:27:20.497Z,27.41
2023-05-09T15:30:14.661Z,27.37
2023-05-09T15:32:59.736Z,27.20
2023-05-09T15:35:39.565Z,27.32
2023-05-09T15:38:21.472Z,27.98
2023-05-09T15:41:25.135Z,28.22
2023-05-09T15:44:54.961Z,28.45
2023-05-09T15:52:06.221Z,28.32
2023-05-09T15:58:23.641Z,28.66
2023-05-09T16:01:58.895Z,28.77
2023-05-09T16:04:49.574Z,29.05
2023-05-09T16:10:31.331Z,29.52
2023-05-09T16:13:03.589Z,29.34
2023-05-09T16:15:35.830Z,29.06
2023-05-09T16:18:08.073Z,29.34
2023-05-09T16:20:39.960Z,29.48
2023-05-09T16:23:11.869Z,29.59
2023-05-09T16:25:46.339Z,29.75
2023-05-09T16:28:19.659Z,29.94
2023-05-09T16:30:52.391Z,29.89
2023-05-09T16:33:24.201Z,29.10
2023-05-09T16:35:56.949Z,28.69
2023-05-09T16:38:29.114Z,28.96
2023-05-09T16:41:00.931Z,28.75
2023-05-09T16:43:32.870Z,29.03
2023-05-09T16:46:08.032Z,29.09
2023-05-09T16:48:39.896Z,29.41
2023-05-09T16:51:12.168Z,29.39
2023-05-09T16:53:44.000Z,29.64
2023-05-09T16:56:15.760Z,29.70
2023-05-09T16:58:49.614Z,30.10
2023-05-09T17:01:22.556Z,30.34
2023-05-09T17:03:54.366Z,30.48
2023-05-09T17:06:26.592Z,30.12
2023-05-09T17:08:58.226Z,30.22
2023-05-09T17:11:30.628Z,30.57
2023-05-09T17:14:03.197Z,30.74
2023-05-09T17:16:37.960Z,31.21
2023-05-09T17:19:09.958Z,31.04
2023-05-09T17:21:42.343Z,31.17
2023-05-09T17:24:14.181Z,31.35
2023-05-09T17:26:47.311Z,31.28
2023-05-09T17:29:22.285Z,31.26
2023-05-09T17:31:54.051Z,31.26
2023-05-09T17:34:28.103Z,31.74
2023-05-09T17:37:04.139Z,31.74
2023-05-09T17:39:45.864Z,31.87
2023-05-09T17:42:19.991Z,32.33
2023-05-09T17:44:52.418Z,32.33
2023-05-09T17:47:32.297Z,32.39
2023-05-09T17:50:05.396Z,32.35
2023-05-09T17:52:37.710Z,32.88
2023-05-09T17:55:10.696Z,32.71
2023-05-09T17:57:43.557Z,32.82
2023-05-09T18:00:18.573Z,33.26
2023-05-09T18:02:51.362Z,33.34
2023-05-09T18:05:24.164Z,33.73
2023-05-09T18:07:57.206Z,34.06
2023-05-09T18:10:28.936Z,34.05
2023-05-09T18:13:01.256Z,34.07
2023-05-09T18:15:38.100Z,34.55
2023-05-09T18:18:12.874Z,34.51
2023-05-09T18:20:47.411Z,34.71
2023-05-09T18:23:19.419Z,34.90
2023-05-09T18:25:51.336Z,35.08
2023-05-09T18:28:26.169Z,35.09
2023-05-09T18:30:59.864Z,35.28
2023-05-09T18:33:32.162Z,35.41
2023-05-09T18:36:05.007Z,35.54
2023-05-09T18:38:38.750Z,35.81
2023-05-09T18:41:12.036Z,36.18
2023-05-09T18:43:47.527Z,36.40
2023-05-09T18:46:21.615Z,36.47
2023-05-09T18:48:54.702Z,36.53
2023-05-09T18:51:26.556Z,36.85
2023-05-09T18:53:58.186Z,37.19
2023-05-09T18:56:30.225Z,37.24
2023-05-09T18:59:03.070Z,37.21
2023-05-09T19:01:34.727Z,37.35
2023-05-09T19:04:07.810Z,37.83
2023-05-09T19:06:40.590Z,37.58
2023-05-09T19:09:13.973Z,37.71
2023-05-09T19:11:46.023Z,37.85
2023-05-09T19:14:18.832Z,37.91
2023-05-09T19:16:51.198Z,38.27
2023-05-09T19:19:25.048Z,38.30
2023-05-09T19:22:00.397Z,38.82
2023-05-09T19:24:36.289Z,38.29
2023-05-09T19:27:10.339Z,38.78
2023-05-09T19:29:43.111Z,38.80
2023-05-09T19:32:19.860Z,38.44
2023-05-09T19:34:59.546Z,38.08
2023-05-09T19:37:36.400Z,38.32
2023-05-09T19:40:11.846Z,38.71
2023-05-09T19:42:46.685Z,38.91
2023-05-09T19:45:22.664Z,38.89
2023-05-09T19:47:59.088Z,39.01
2023-05-09T19:50:33.262Z,39.36
2023-05-09T19:53:05.492Z,38.91
2023-05-09T19:55:38.396Z,39.20
2023-05-09T19:58:12.000Z,39.13
2023-05-09T20:00:43.951Z,38.82
2023-05-09T20:03:17.299Z,39.17
2023-05-09T20:11:35.354Z,39.32
2023-05-09T20:14:08.055Z,39.35
2023-05-09T20:16:41.139Z,39.23
2023-05-09T20:19:16.906Z,39.26
2023-05-09T20:21:51.352Z,39.51
2023-05-09T20:24:29.440Z,39.54
2023-05-09T20:27:03.782Z,40.05
2023-05-09T20:29:37.864Z,39.97
2023-05-09T20:32:12.298Z,40.11
2023-05-09T20:34:47.005Z,40.52
2023-05-09T20:37:18.872Z,40.91
2023-05-09T20:39:51.931Z,40.70
2023-05-09T20:42:26.819Z,40.77
2023-05-09T20:45:05.557Z,40.77
2023-05-09T20:47:38.486Z,40.49
2023-05-09T20:50:12.801Z,40.32
2023-05-09T20:52:44.727Z,40.62
2023-05-09T20:55:18.658Z,40.90
2023-05-09T20:57:50.735Z,40.96
2023-05-09T21:00:22.865Z,41.30
2023-05-09T21:02:58.611Z,41.47
2023-05-09T21:05:32.379Z,41.48
2023-05-09T21:08:04.297Z,41.34
2023-05-09T21:10:36.602Z,41.42
2023-05-09T21:13:08.416Z,41.53
2023-05-09T21:15:40.074Z,41.70
2023-05-09T21:18:12.074Z,41.78
2023-05-09T21:20:45.370Z,41.93
2023-05-09T21:23:18.840Z,41.87
2023-05-09T21:25:50.777Z,41.45
2023-05-09T21:28:22.277Z,41.42
2023-05-09T21:30:55.513Z,41.22
2023-05-09T21:33:27.587Z,41.23
2023-05-09T21:35:59.637Z,41.59
2023-05-09T21:38:31.632Z,41.71
2023-05-09T21:41:03.510Z,42.06
2023-05-09T21:43:35.664Z,41.73
2023-05-09T21:46:08.951Z,42.12
2023-05-09T21:48:40.632Z,42.23
2023-05-09T21:51:13.129Z,42.40
2023-05-09T21:53:44.743Z,42.52
2023-05-09T21:56:17.035Z,42.45
2023-05-09T21:58:48.595Z,42.49
2023-05-09T22:01:22.220Z,42.48
2023-05-09T22:03:54.017Z,42.17
2023-05-09T22:06:25.682Z,42.44
2023-05-09T22:08:57.188Z,42.71
2023-05-09T22:11:28.709Z,42.86
2023-05-09T22:14:00.725Z,42.43
2023-05-09T22:16:33.626Z,42.27
2023-05-09T22:19:05.143Z,42.72
2023-05-09T22:21:36.647Z,42.67
2023-05-09T22:24:09.000Z,42.94
2023-05-09T22:26:40.702Z,42.94
2023-05-09T22:29:12.115Z,42.83
2023-05-09T22:31:51.473Z,42.72
2023-05-09T22:34:23.440Z,42.57
2023-05-09T22:36:55.846Z,42.63
2023-05-09T22:39:27.467Z,42.77
2023-05-09T22:41:59.081Z,42.93
2023-05-09T22:44:30.400Z,43.01
2023-05-09T22:47:01.900Z,43.22
2023-05-09T22:49:33.412Z,43.26
2023-05-09T22:52:04.995Z,43.46
2023-05-09T22:54:36.499Z,43.42
2023-05-09T22:57:08.285Z,43.38
2023-05-09T22:59:39.845Z,43.33
2023-05-09T23:02:12.622Z,43.23
2023-05-09T23:04:44.094Z,43.60
2023-05-09T23:07:16.315Z,43.81
2023-05-09T23:09:47.760Z,44.09
2023-05-09T23:12:19.203Z,44.04
2023-05-09T23:14:50.993Z,44.31
2023-05-09T23:17:23.314Z,44.12
2023-05-09T23:19:55.645Z,44.29
2023-05-09T23:22:27.901Z,44.00
2023-05-09T23:25:01.205Z,44.15
2023-05-09T23:27:33.684Z,44.38
2023-05-09T23:30:06.315Z,44.91
2023-05-09T23:32:38.681Z,45.26
2023-05-09T23:35:11.720Z,45.36
2023-05-09T23:37:43.508Z,45.41
2023-05-09T23:40:16.778Z,45.38
2023-05-09T23:42:48.481Z,45.45
2023-05-09T23:45:20.273Z,45.35
2023-05-09T23:47:52.256Z,45.54
2023-05-09T23:50:25.256Z,45.83
2023-05-09T23:52:57.347Z,46.00
2023-05-09T23:55:29.483Z,45.78
2023-05-09T23:58:01.038Z,45.92
